Time;durP1;ratioP1;P1;durP2;ratioP2;P2;SDS_P1;SDS_P2;PMS_P1;PMS_P2;Temp;Humidity;BMP_temperature;BMP_pressure;BME280_temperature;BME280_humidity;BME280_pressure;Samples;Min_cycle;Max_cycle;Signal;HPM_P1;HPM_P2
2023/06/07 00:02:02;;;;;;;4.78;1.73;;;20.70;1.00;;;;;;4880630;29;20070;-49
2023/06/07 00:04:30;;;;;;;6.15;1.88;;;20.70;1.00;;;;;;4880828;29;20076;-49
2023/06/07 00:07:00;;;;;;;5.88;1.30;;;20.70;1.00;;;;;;4873289;29;20049;-49
2023/06/07 00:09:29;;;;;;;5.03;2.20;;;20.70;1.00;;;;;;4880687;29;20124;-48
2023/06/07 00:11:56;;;;;;;2.22;1.20;;;20.70;1.00;;;;;;4872965;29;20093;-50
2023/06/07 00:14:23;;;;;;;4.35;1.58;;;20.70;1.00;;;;;;4880650;29;20127;-51
2023/06/07 00:16:52;;;;;;;4.00;1.25;;;20.70;1.00;;;;;;4879377;29;20404;-48
2023/06/07 00:19:21;;;;;;;4.57;1.80;;;20.70;1.00;;;;;;4880517;29;20053;-53
2023/06/07 00:21:51;;;;;;;4.85;1.73;;;20.60;1.00;;;;;;4879942;29;20462;-49
2023/06/07 00:24:19;;;;;;;3.47;1.23;;;20.60;1.00;;;;;;4880512;29;20493;-49
2023/06/07 00:26:46;;;;;;;2.72;1.25;;;20.60;1.00;;;;;;4879086;29;20056;-49
2023/06/07 00:29:14;;;;;;;3.80;1.67;;;20.60;1.00;;;;;;4880554;29;20401;-49
2023/06/07 00:31:41;;;;;;;3.13;1.70;;;20.60;1.00;;;;;;4879646;29;20060;-50
2023/06/07 00:34:08;;;;;;;3.65;1.50;;;20.60;1.00;;;;;;4879020;29;20037;-51
2023/06/07 00:36:36;;;;;;;4.43;1.33;;;20.60;1.00;;;;;;4880120;29;20048;-49
2023/06/07 00:39:03;;;;;;;4.22;1.92;;;20.60;1.00;;;;;;4880585;29;20049;-52
2023/06/07 00:41:30;;;;;;;7.95;1.50;;;20.60;1.00;;;;;;4879589;29;20548;-51
2023/06/07 00:43:57;;;;;;;2.30;1.23;;;20.60;1.00;;;;;;4880130;29;20045;-48
2023/06/07 00:46:29;;;;;;;4.55;1.98;;;20.60;1.00;;;;;;4879852;29;20045;-52
2023/06/07 00:48:57;;;;;;;3.85;1.88;;;20.60;1.00;;;;;;4879874;29;20055;-52
2023/06/07 00:51:27;;;;;;;5.53;2.00;;;20.60;1.00;;;;;;4878255;29;20055;-51
2023/06/07 00:53:58;;;;;;;2.92;1.40;;;20.60;1.00;;;;;;4879826;29;20075;-50
2023/06/07 00:56:26;;;;;;;3.78;1.33;;;20.60;1.00;;;;;;4879993;29;20143;-52
2023/06/07 00:58:53;;;;;;;3.17;1.13;;;20.60;1.00;;;;;;4878240;29;20049;-53
2023/06/07 01:01:20;;;;;;;2.97;1.52;;;20.50;1.00;;;;;;4878217;29;20462;-51
2023/06/07 01:03:47;;;;;;;3.58;1.58;;;20.60;1.00;;;;;;4878390;29;20049;-49
2023/06/07 01:06:14;;;;;;;5.07;1.77;;;20.60;1.00;;;;;;4879760;29;20037;-53
2023/06/07 01:08:41;;;;;;;4.43;2.22;;;20.50;1.00;;;;;;4879374;29;20103;-53
2023/06/07 01:11:10;;;;;;;3.50;1.63;;;20.50;1.00;;;;;;4877719;29;20136;-50
2023/06/07 01:13:39;;;;;;;2.65;1.05;;;20.50;1.00;;;;;;4878301;29;20413;-50
2023/06/07 01:16:08;;;;;;;2.03;1.42;;;20.50;1.00;;;;;;4878195;29;20049;-54
2023/06/07 01:18:37;;;;;;;3.20;1.55;;;20.50;1.00;;;;;;4879389;29;20037;-52
2023/06/07 01:21:06;;;;;;;3.90;1.60;;;20.50;1.00;;;;;;4879248;29;20061;-50
2023/06/07 01:23:34;;;;;;;5.13;1.50;;;20.50;1.00;;;;;;4878286;29;20057;-50
2023/06/07 01:26:02;;;;;;;4.03;1.45;;;20.50;1.00;;;;;;4886310;29;20049;-51
2023/06/07 01:28:33;;;;;;;3.83;1.45;;;20.50;1.00;;;;;;4878165;29;20053;-49
2023/06/07 01:31:01;;;;;;;4.95;1.60;;;20.50;1.00;;;;;;4869986;29;20120;-50
2023/06/07 01:33:32;;;;;;;2.80;1.48;;;20.50;1.00;;;;;;4877740;29;20087;-51
2023/06/07 01:36:02;;;;;;;2.83;1.30;;;20.50;1.00;;;;;;4878125;29;20075;-51
2023/06/07 01:38:31;;;;;;;5.03;1.95;;;20.50;1.00;;;;;;4877690;29;20092;-52
2023/06/07 01:41:00;;;;;;;4.53;1.55;;;20.50;1.00;;;;;;4878683;29;20044;-52
2023/06/07 01:43:28;;;;;;;4.45;1.10;;;20.50;1.00;;;;;;4877807;29;20100;-49
2023/06/07 01:45:56;;;;;;;3.13;1.50;;;20.40;1.00;;;;;;4879513;29;20057;-51
2023/06/07 01:48:25;;;;;;;4.20;1.48;;;20.40;1.00;;;;;;4877891;29;20056;-53
2023/06/07 01:50:52;;;;;;;2.35;1.17;;;20.40;1.00;;;;;;4877020;29;20042;-51
2023/06/07 01:53:19;;;;;;;2.53;1.40;;;20.40;1.00;;;;;;4877802;29;20049;-50
2023/06/07 01:55:57;;;;;;;5.47;2.08;;;20.40;1.00;;;;;;4878761;29;20044;-51
2023/06/07 01:58:42;;;;;;;5.75;1.73;;;20.40;1.00;;;;;;4876791;29;20100;-51
2023/06/07 02:01:23;;;;;;;2.78;1.15;;;20.40;1.00;;;;;;4876956;29;20144;-53
2023/06/07 02:03:53;;;;;;;2.00;1.17;;;20.40;1.00;;;;;;4878623;29;20053;-52
2023/06/07 02:06:32;;;;;;;3.50;1.15;;;20.40;1.00;;;;;;4877610;29;20049;-52
2023/06/07 02:09:07;;;;;;;3.20;1.10;;;20.40;1.00;;;;;;4877010;29;20132;-53
2023/06/07 02:11:38;;;;;;;5.25;2.00;;;20.40;1.00;;;;;;4878092;29;20037;-50
2023/06/07 02:14:06;;;;;;;5.10;1.80;;;20.40;1.00;;;;;;4870196;29;20037;-50
2023/06/07 02:16:37;;;;;;;5.82;2.67;;;20.40;1.00;;;;;;4877247;29;20049;-52
2023/06/07 02:19:09;;;;;;;2.80;1.50;;;20.30;1.00;;;;;;4877149;29;20045;-48
2023/06/07 02:21:48;;;;;;;2.42;0.73;;;20.40;1.00;;;;;;4878245;29;20100;-48
2023/06/07 02:24:16;;;;;;;6.15;2.30;;;20.40;1.00;;;;;;4878372;29;20517;-49
2023/06/07 02:26:43;;;;;;;1.58;0.85;;;20.40;1.00;;;;;;4878176;29;20037;-48
2023/06/07 02:29:11;;;;;;;3.40;1.70;;;20.40;1.00;;;;;;4878195;29;20395;-49
2023/06/07 02:31:38;;;;;;;3.28;1.58;;;20.40;1.00;;;;;;4876570;29;20067;-51
2023/06/07 02:34:07;;;;;;;3.65;1.42;;;20.30;1.00;;;;;;4878405;29;20092;-51
2023/06/07 02:36:39;;;;;;;4.30;1.10;;;20.30;1.00;;;;;;4878084;29;20059;-48
2023/06/07 02:39:10;;;;;;;5.40;1.40;;;20.30;1.00;;;;;;4885260;29;20523;-53
2023/06/07 02:41:37;;;;;;;5.38;1.40;;;20.30;1.00;;;;;;4877891;29;20099;-51
2023/06/07 02:44:04;;;;;;;3.30;1.25;;;20.30;1.00;;;;;;4869310;29;20089;-53
2023/06/07 02:46:31;;;;;;;4.13;1.40;;;20.30;1.00;;;;;;4880645;29;20045;-50
2023/06/07 02:48:57;;;;;;;2.85;1.20;;;20.30;1.00;;;;;;4876726;29;20519;-50
2023/06/07 02:51:25;;;;;;;4.45;0.93;;;20.30;1.00;;;;;;4876473;29;20548;-51
2023/06/07 02:53:53;;;;;;;2.63;1.05;;;20.30;1.00;;;;;;4877976;29;20045;-51
2023/06/07 02:56:23;;;;;;;2.90;1.08;;;20.30;1.00;;;;;;4876843;29;20048;-49
2023/06/07 02:58:50;;;;;;;2.50;1.00;;;20.30;1.00;;;;;;4876918;29;20433;-49
2023/06/07 03:01:19;;;;;;;6.05;1.63;;;20.30;1.00;;;;;;4876300;29;20495;-53
2023/06/07 03:03:49;;;;;;;3.58;1.40;;;20.30;1.00;;;;;;4876463;29;20053;-50
2023/06/07 03:06:16;;;;;;;4.18;1.20;;;20.20;1.00;;;;;;4876728;29;20081;-53
2023/06/07 03:08:44;;;;;;;3.92;1.40;;;20.30;1.00;;;;;;4876546;29;20053;-50
2023/06/07 03:11:14;;;;;;;3.42;1.33;;;20.30;1.00;;;;;;4879687;29;20052;-52
2023/06/07 03:13:45;;;;;;;2.42;1.67;;;20.30;1.00;;;;;;4880238;29;20056;-50
2023/06/07 03:16:16;;;;;;;3.80;1.90;;;20.20;1.00;;;;;;4880139;29;20049;-51
2023/06/07 03:18:52;;;;;;;3.72;1.52;;;20.30;1.00;;;;;;4880124;29;20073;-49
2023/06/07 03:21:20;;;;;;;3.38;1.23;;;20.20;1.00;;;;;;4879779;29;20524;-53
2023/06/07 03:23:48;;;;;;;3.15;1.00;;;20.20;1.00;;;;;;4880044;29;20513;-53
2023/06/07 03:26:15;;;;;;;5.00;1.38;;;20.20;1.00;;;;;;4880001;29;20131;-51
2023/06/07 03:28:42;;;;;;;3.30;1.20;;;20.20;1.00;;;;;;4878801;29;20063;-51
2023/06/07 03:31:09;;;;;;;3.63;1.73;;;20.20;1.00;;;;;;4879335;29;20466;-53
2023/06/07 03:33:47;;;;;;;4.70;1.98;;;20.20;1.00;;;;;;4879773;29;20041;-49
2023/06/07 03:36:17;;;;;;;4.28;1.63;;;20.20;1.00;;;;;;4879544;29;20689;-48
2023/06/07 03:38:44;;;;;;;6.88;1.90;;;20.20;1.00;;;;;;4879412;29;20045;-52
2023/06/07 03:41:11;;;;;;;1.95;1.08;;;20.20;1.00;;;;;;4879584;29;20048;-50
2023/06/07 03:43:39;;;;;;;4.80;1.67;;;20.20;1.00;;;;;;4879925;29;20139;-51
2023/06/07 03:46:07;;;;;;;4.28;1.50;;;20.20;1.00;;;;;;4882733;29;20093;-49
2023/06/07 03:48:34;;;;;;;6.10;1.65;;;20.20;1.00;;;;;;4879863;29;20118;-53
2023/06/07 03:51:01;;;;;;;4.45;1.20;;;20.10;1.00;;;;;;4878961;29;20255;-50
2023/06/07 03:53:28;;;;;;;2.83;1.10;;;20.20;1.00;;;;;;4879662;29;20454;-49
2023/06/07 03:55:55;;;;;;;3.83;1.40;;;20.20;1.00;;;;;;4879416;29;20153;-51
2023/06/07 03:58:25;;;;;;;2.95;1.23;;;20.20;1.00;;;;;;4879608;29;20105;-51
2023/06/07 04:00:53;;;;;;;4.28;1.55;;;20.10;1.00;;;;;;4878921;29;20057;-51
2023/06/07 04:03:24;;;;;;;4.75;1.80;;;20.10;1.00;;;;;;4879489;29;20544;-50
2023/06/07 04:05:54;;;;;;;2.80;1.38;;;20.10;1.00;;;;;;4879366;29;20136;-52
2023/06/07 04:08:21;;;;;;;2.88;1.23;;;20.10;1.00;;;;;;4879365;29;20521;-52
2023/06/07 04:10:49;;;;;;;5.15;1.55;;;20.10;1.00;;;;;;4878706;29;20104;-50
2023/06/07 04:13:16;;;;;;;2.92;1.60;;;20.10;1.00;;;;;;4879289;29;20132;-48
2023/06/07 04:15:43;;;;;;;2.83;1.13;;;20.10;1.00;;;;;;4879168;29;20150;-52
2023/06/07 04:18:10;;;;;;;4.13;0.98;;;20.10;1.00;;;;;;4879115;29;20408;-49
2023/06/07 04:20:42;;;;;;;5.00;1.00;;;20.10;1.00;;;;;;4878617;29;20053;-52
2023/06/07 04:23:12;;;;;;;2.35;1.40;;;20.10;1.00;;;;;;4878937;29;20080;-51
2023/06/07 04:25:39;;;;;;;2.47;1.08;;;20.10;1.00;;;;;;4879188;29;20144;-50
2023/06/07 04:28:08;;;;;;;4.40;1.27;;;20.10;1.00;;;;;;4878833;29;20060;-50
2023/06/07 04:30:34;;;;;;;6.03;1.25;;;20.10;1.00;;;;;;4878520;29;20045;-51
2023/06/07 04:33:08;;;;;;;4.63;1.02;;;20.10;1.00;;;;;;4878656;29;20049;-50
2023/06/07 04:35:42;;;;;;;3.08;1.00;;;20.10;1.00;;;;;;4878931;29;20049;-53
2023/06/07 04:38:15;;;;;;;3.47;1.47;;;20.10;1.00;;;;;;4878899;29;20052;-53
2023/06/07 04:40:49;;;;;;;4.18;1.75;;;20.00;1.00;;;;;;4878774;29;20069;-50
2023/06/07 04:43:25;;;;;;;3.88;1.20;;;20.00;1.00;;;;;;4878853;29;20049;-52
2023/06/07 04:45:54;;;;;;;2.00;0.82;;;20.00;1.00;;;;;;4881664;29;20056;-49
2023/06/07 04:48:25;;;;;;;2.03;1.08;;;20.00;1.00;;;;;;4878889;29;20094;-51
2023/06/07 04:51:03;;;;;;;5.35;1.65;;;20.00;1.00;;;;;;4878145;29;20063;-50
2023/06/07 04:53:36;;;;;;;3.50;1.98;;;20.00;1.00;;;;;;4878809;29;20056;-50
2023/06/07 04:56:06;;;;;;;3.83;1.63;;;20.00;1.00;;;;;;4878477;29;20049;-51
2023/06/07 04:58:33;;;;;;;4.00;2.22;;;20.00;1.00;;;;;;4878583;29;20121;-51
2023/06/07 05:01:03;;;;;;;3.28;1.13;;;20.00;1.00;;;;;;4893608;29;20063;-51
2023/06/07 05:03:32;;;;;;;1.35;1.02;;;20.00;1.00;;;;;;4878716;29;20053;-50
2023/06/07 05:06:02;;;;;;;3.47;1.50;;;20.00;1.00;;;;;;4878448;29;20100;-51
2023/06/07 05:08:30;;;;;;;3.13;1.48;;;20.00;1.00;;;;;;4878370;29;20069;-50
2023/06/07 05:10:58;;;;;;;3.30;1.23;;;20.00;1.00;;;;;;4877632;29;20140;-48
2023/06/07 05:13:26;;;;;;;4.10;1.60;;;20.00;1.00;;;;;;4878289;29;20045;-48
2023/06/07 05:15:56;;;;;;;2.28;1.05;;;20.00;1.00;;;;;;4878038;29;20048;-48
2023/06/07 05:18:27;;;;;;;3.22;1.25;;;20.00;1.00;;;;;;4878130;29;20052;-51
2023/06/07 05:20:56;;;;;;;3.40;0.98;;;20.00;1.00;;;;;;4877711;29;20143;-49
2023/06/07 05:23:23;;;;;;;4.15;1.30;;;20.00;1.00;;;;;;4878004;29;20045;-49
2023/06/07 05:25:52;;;;;;;3.97;1.02;;;20.00;1.00;;;;;;4877926;29;20148;-49
2023/06/07 05:28:19;;;;;;;3.17;1.00;;;20.00;1.00;;;;;;4877850;29;20128;-50
2023/06/07 05:30:49;;;;;;;4.70;1.20;;;20.00;1.00;;;;;;4877365;29;20045;-49
2023/06/07 05:33:18;;;;;;;4.47;0.90;;;20.00;1.00;;;;;;4877051;29;20048;-50
2023/06/07 05:35:46;;;;;;;3.13;1.08;;;19.90;1.00;;;;;;4877851;29;20041;-50
2023/06/07 05:38:15;;;;;;;5.43;1.60;;;19.90;1.00;;;;;;4870328;29;20099;-48
2023/06/07 05:40:42;;;;;;;4.75;1.40;;;20.00;1.00;;;;;;4877482;29;20057;-49
2023/06/07 05:43:09;;;;;;;2.67;1.20;;;19.90;1.00;;;;;;4877540;29;20061;-50
2023/06/07 05:45:37;;;;;;;4.15;1.15;;;19.90;1.00;;;;;;4881368;29;20428;-48
2023/06/07 05:48:04;;;;;;;2.72;1.10;;;19.90;1.00;;;;;;4877624;29;20283;-49
2023/06/07 05:50:33;;;;;;;3.92;0.93;;;19.90;1.00;;;;;;4877261;29;20052;-48
2023/06/07 05:53:00;;;;;;;5.82;1.17;;;19.90;1.00;;;;;;4878825;29;20045;-48
2023/06/07 05:55:27;;;;;;;2.92;1.10;;;19.90;1.00;;;;;;4878868;29;20045;-49
2023/06/07 05:57:57;;;;;;;3.08;1.15;;;19.90;1.00;;;;;;4878573;29;20059;-50
2023/06/07 06:00:24;;;;;;;3.22;1.15;;;19.90;1.00;;;;;;4878419;29;20404;-48
2023/06/07 06:02:52;;;;;;;1.80;0.90;;;19.90;1.00;;;;;;4878459;29;20045;-50
2023/06/07 06:05:27;;;;;;;2.58;0.77;;;19.90;1.00;;;;;;4878711;29;20049;-49
2023/06/07 06:07:56;;;;;;;2.03;0.80;;;19.90;1.00;;;;;;4878622;29;20370;-49
2023/06/07 06:10:25;;;;;;;3.70;1.02;;;19.90;1.00;;;;;;4878157;29;20057;-48
2023/06/07 06:12:52;;;;;;;2.97;1.20;;;19.90;1.00;;;;;;4878564;29;20404;-48
2023/06/07 06:15:19;;;;;;;3.50;1.23;;;19.90;1.00;;;;;;4878509;29;20322;-49
2023/06/07 06:17:48;;;;;;;4.50;1.40;;;19.90;1.00;;;;;;4878612;29;20052;-49
2023/06/07 06:20:16;;;;;;;2.28;0.75;;;19.90;1.00;;;;;;4878045;29;20037;-49
2023/06/07 06:22:43;;;;;;;3.90;0.90;;;19.90;1.00;;;;;;4878443;29;20045;-48
2023/06/07 06:25:12;;;;;;;2.05;1.15;;;19.90;1.00;;;;;;4878293;29;20049;-50
2023/06/07 06:27:39;;;;;;;1.88;0.85;;;19.90;1.00;;;;;;4878258;29;20528;-48
2023/06/07 06:30:06;;;;;;;3.75;1.15;;;19.90;1.00;;;;;;4877579;29;20041;-49
2023/06/07 06:32:33;;;;;;;2.78;1.60;;;19.90;1.00;;;;;;4878238;29;20084;-48
2023/06/07 06:35:01;;;;;;;2.60;1.20;;;19.90;1.00;;;;;;4878121;29;20489;-49
2023/06/07 06:37:27;;;;;;;3.47;1.02;;;19.90;1.00;;;;;;4878232;29;20041;-49
2023/06/07 06:39:54;;;;;;;2.85;1.17;;;19.90;1.00;;;;;;4877661;29;20481;-49
2023/06/07 06:42:21;;;;;;;2.28;1.13;;;19.90;1.00;;;;;;4878208;29;20131;-48
2023/06/07 06:45:23;;;;;;;2.83;1.00;;;19.90;1.00;;;;;;4871824;29;20080;-49
2023/06/07 06:47:50;;;;;;;4.78;1.08;;;19.90;1.00;;;;;;4878006;29;20076;-49
2023/06/07 06:50:17;;;;;;;5.97;1.40;;;19.90;1.00;;;;;;4877537;29;20052;-49
2023/06/07 06:52:59;;;;;;;3.05;1.23;;;19.80;1.00;;;;;;4877961;29;20053;-49
2023/06/07 06:55:26;;;;;;;2.53;1.30;;;19.90;1.00;;;;;;4878040;29;20063;-49
2023/06/07 06:57:53;;;;;;;4.72;1.27;;;19.90;1.00;;;;;;4877794;29;20041;-50
2023/06/07 07:00:21;;;;;;;5.05;1.25;;;19.90;1.00;;;;;;4877619;29;20041;-49
2023/06/07 07:02:48;;;;;;;3.63;0.95;;;19.90;1.00;;;;;;4877980;29;20049;-49
2023/06/07 07:05:15;;;;;;;5.53;1.38;;;19.90;1.00;;;;;;4877782;29;20049;-49
2023/06/07 07:07:42;;;;;;;5.90;1.52;;;19.90;1.00;;;;;;4877958;29;20059;-49
2023/06/07 07:10:09;;;;;;;1.58;0.82;;;19.90;1.00;;;;;;4877359;29;20133;-49
2023/06/07 07:12:38;;;;;;;3.05;1.27;;;19.90;1.00;;;;;;4877611;29;20041;-49
2023/06/07 07:15:06;;;;;;;2.30;0.90;;;19.80;1.00;;;;;;4877846;29;20053;-49
2023/06/07 07:17:33;;;;;;;2.67;1.40;;;19.90;1.00;;;;;;4877928;29;20049;-48
2023/06/07 07:20:00;;;;;;;3.72;1.30;;;19.90;1.00;;;;;;4877187;29;20045;-50
2023/06/07 07:22:27;;;;;;;6.03;1.58;;;19.90;1.00;;;;;;4877883;29;20072;-49
2023/06/07 07:24:57;;;;;;;2.88;1.10;;;19.90;1.00;;;;;;4876318;29;20052;-49
2023/06/07 07:27:24;;;;;;;4.20;1.15;;;19.90;1.00;;;;;;4877947;29;20045;-49
2023/06/07 07:29:51;;;;;;;2.95;1.05;;;19.90;1.00;;;;;;4877391;29;20045;-52
2023/06/07 07:32:18;;;;;;;4.38;1.92;;;19.90;1.00;;;;;;4877549;29;20072;-50
2023/06/07 07:34:45;;;;;;;3.97;1.85;;;19.90;1.00;;;;;;4876575;29;20493;-52
2023/06/07 07:37:12;;;;;;;1.83;0.88;;;19.90;1.00;;;;;;4877533;29;20465;-52
2023/06/07 07:39:39;;;;;;;2.65;1.15;;;19.90;1.00;;;;;;4876023;29;20532;-50
2023/06/07 07:42:07;;;;;;;4.05;1.10;;;19.90;1.00;;;;;;4877330;29;20048;-48
2023/06/07 07:44:34;;;;;;;2.47;1.20;;;19.90;1.00;;;;;;4878358;29;20067;-50
2023/06/07 07:47:01;;;;;;;4.57;1.27;;;19.90;1.00;;;;;;4880055;29;20132;-48
2023/06/07 07:49:28;;;;;;;3.47;1.10;;;19.90;1.00;;;;;;4877752;29;20053;-51
2023/06/07 07:51:55;;;;;;;2.88;1.15;;;19.80;1.00;;;;;;4877345;29;20132;-50
2023/06/07 07:54:22;;;;;;;4.38;1.52;;;19.90;1.00;;;;;;4877544;29;20048;-51
2023/06/07 07:56:49;;;;;;;5.75;1.55;;;19.90;1.00;;;;;;4878665;29;20064;-51
2023/06/07 07:59:16;;;;;;;2.90;1.20;;;19.90;1.00;;;;;;4880694;29;20084;-54
2023/06/07 08:01:45;;;;;;;5.25;1.63;;;19.90;1.00;;;;;;4880583;29;20519;-51
2023/06/07 08:04:12;;;;;;;5.25;1.45;;;19.90;1.00;;;;;;4880451;29;20053;-52
2023/06/07 08:06:39;;;;;;;2.85;0.98;;;19.90;1.00;;;;;;4880745;29;20128;-49
2023/06/07 08:09:06;;;;;;;4.53;1.40;;;19.90;1.00;;;;;;4879189;29;20052;-50
2023/06/07 08:11:32;;;;;;;6.03;1.88;;;19.90;1.00;;;;;;4880311;29;20097;-49
2023/06/07 08:13:59;;;;;;;6.38;1.33;;;19.90;1.00;;;;;;4880344;29;20119;-53
2023/06/07 08:16:26;;;;;;;4.95;1.67;;;19.90;1.00;;;;;;4880410;29;20047;-51
2023/06/07 08:18:57;;;;;;;3.33;1.30;;;19.90;1.00;;;;;;4880548;29;20040;-49
2023/06/07 08:21:27;;;;;;;4.20;1.15;;;19.90;1.00;;;;;;4880062;29;20206;-48
2023/06/07 08:23:54;;;;;;;3.85;1.65;;;19.90;1.00;;;;;;4880287;29;20053;-51
2023/06/07 08:26:22;;;;;;;2.20;1.17;;;19.90;1.00;;;;;;4880478;29;20041;-50
2023/06/07 08:28:49;;;;;;;5.35;1.67;;;19.90;1.00;;;;;;4880276;29;20052;-48
2023/06/07 08:31:17;;;;;;;6.13;1.40;;;19.90;1.00;;;;;;4879869;29;20503;-50
2023/06/07 08:33:46;;;;;;;3.45;1.45;;;19.90;1.00;;;;;;4880550;29;20409;-49
2023/06/07 08:36:13;;;;;;;2.97;1.30;;;19.90;1.00;;;;;;4879888;29;20041;-49
2023/06/07 08:38:41;;;;;;;3.53;1.35;;;19.90;1.00;;;;;;4880300;29;20129;-49
2023/06/07 08:41:09;;;;;;;4.70;1.42;;;19.90;1.00;;;;;;4879454;29;20068;-51
2023/06/07 08:43:37;;;;;;;4.60;1.70;;;19.90;1.00;;;;;;4880232;29;20324;-48
2023/06/07 08:46:05;;;;;;;3.10;1.30;;;19.90;1.00;;;;;;4884722;29;20512;-48
2023/06/07 08:48:33;;;;;;;5.22;1.58;;;19.90;1.00;;;;;;4879936;29;20055;-51
2023/06/07 08:51:01;;;;;;;2.67;1.25;;;19.90;1.00;;;;;;4879464;29;20093;-51
2023/06/07 08:53:46;;;;;;;2.90;1.40;;;19.90;1.00;;;;;;4880545;29;20095;-50
2023/06/07 08:56:13;;;;;;;3.33;1.40;;;19.90;1.00;;;;;;4879835;29;20045;-51
2023/06/07 08:58:44;;;;;;;4.88;1.30;;;19.90;1.00;;;;;;4879726;29;20454;-49
2023/06/07 09:01:11;;;;;;;3.92;1.60;;;19.90;1.00;;;;;;4879338;29;20478;-50
2023/06/07 09:03:39;;;;;;;4.57;1.23;;;19.90;1.00;;;;;;4879766;29;20045;-48
2023/06/07 09:06:07;;;;;;;3.70;1.63;;;19.90;1.00;;;;;;4878263;29;20037;-49
2023/06/07 09:08:34;;;;;;;3.83;1.58;;;19.90;1.00;;;;;;4879223;29;20049;-48
2023/06/07 09:11:01;;;;;;;6.82;1.70;;;19.90;1.00;;;;;;4878906;29;20037;-49
2023/06/07 09:13:29;;;;;;;2.88;1.40;;;19.90;1.00;;;;;;4878208;29;20041;-51
2023/06/07 09:15:57;;;;;;;3.72;1.58;;;19.90;1.00;;;;;;4879298;29;20033;-48
2023/06/07 09:18:41;;;;;;;5.13;1.60;;;19.90;1.00;;;;;;4879439;29;20041;-49
2023/06/07 09:21:26;;;;;;;3.00;1.52;;;19.90;1.00;;;;;;4878963;29;20039;-48
2023/06/07 09:23:55;;;;;;;5.88;1.50;;;19.90;1.00;;;;;;4879368;29;20292;-49
2023/06/07 09:26:23;;;;;;;6.40;1.88;;;19.90;1.00;;;;;;4879154;29;20052;-50
2023/06/07 09:28:50;;;;;;;4.40;1.77;;;19.90;1.00;;;;;;4877896;29;20052;-49
2023/06/07 09:31:32;;;;;;;3.28;1.65;;;19.90;1.00;;;;;;4878587;29;20037;-48
2023/06/07 09:34:17;;;;;;;3.88;1.20;;;19.90;1.00;;;;;;4878882;29;20490;-48
2023/06/07 09:36:56;;;;;;;4.05;1.73;;;19.90;1.00;;;;;;4873542;29;20041;-49
2023/06/07 09:39:28;;;;;;;5.82;2.00;;;19.90;1.00;;;;;;4878421;29;20085;-49
2023/06/07 09:41:57;;;;;;;2.78;1.30;;;19.90;1.00;;;;;;4878364;29;20045;-48
2023/06/07 09:44:28;;;;;;;3.20;1.45;;;19.90;1.00;;;;;;4879275;29;20056;-48
2023/06/07 09:46:56;;;;;;;1.95;1.25;;;19.90;1.00;;;;;;4883087;29;20052;-49
2023/06/07 09:49:25;;;;;;;2.40;1.05;;;19.90;1.00;;;;;;4878643;29;20049;-49
2023/06/07 09:51:53;;;;;;;7.22;1.95;;;19.90;1.00;;;;;;4878293;29;20076;-50
2023/06/07 09:54:38;;;;;;;2.42;1.30;;;19.90;1.00;;;;;;4878413;29;20525;-49
2023/06/07 09:57:11;;;;;;;6.90;1.27;;;19.90;1.00;;;;;;4878663;29;20051;-50
2023/06/07 09:59:54;;;;;;;4.00;1.23;;;19.90;1.00;;;;;;4878561;29;20493;-50
2023/06/07 10:02:28;;;;;;;3.78;1.45;;;19.90;1.00;;;;;;4878430;29;20075;-48
2023/06/07 10:04:56;;;;;;;3.95;1.48;;;19.90;1.00;;;;;;4878496;29;20041;-49
2023/06/07 10:07:38;;;;;;;4.28;1.50;;;20.00;1.00;;;;;;4878458;29;20095;-50
2023/06/07 10:10:07;;;;;;;5.95;1.98;;;20.00;1.00;;;;;;4877864;29;20073;-49
2023/06/07 10:12:40;;;;;;;8.45;2.00;;;20.00;1.00;;;;;;4877130;29;20068;-49
2023/06/07 10:15:10;;;;;;;4.65;1.80;;;19.90;1.00;;;;;;4878044;29;20496;-48
2023/06/07 10:17:55;;;;;;;6.50;2.08;;;20.00;1.00;;;;;;4878145;29;20044;-48
2023/06/07 10:20:36;;;;;;;3.35;1.38;;;20.00;1.00;;;;;;4877369;29;20037;-49
2023/06/07 10:23:09;;;;;;;4.55;1.55;;;20.00;1.00;;;;;;4878290;29;20048;-48
2023/06/07 10:25:43;;;;;;;;;;;20.00;1.00;;;;;;4872022;29;20056;-49
2023/06/07 10:28:19;;;;;;;3.42;1.98;;;20.00;1.00;;;;;;4878428;29;19923;-52
2023/06/07 10:30:55;;;;;;;5.45;1.83;;;20.00;1.00;;;;;;4878042;29;20516;-50
2023/06/07 10:33:25;;;;;;;2.72;1.63;;;20.00;1.00;;;;;;4878156;29;20045;-50
2023/06/07 10:35:53;;;;;;;4.60;2.00;;;20.00;1.00;;;;;;4877964;29;20442;-53
2023/06/07 10:38:20;;;;;;;3.50;1.88;;;20.00;1.00;;;;;;4878217;29;20105;-52
2023/06/07 10:40:48;;;;;;;4.93;1.60;;;20.00;1.00;;;;;;4878001;29;20029;-50
2023/06/07 10:43:15;;;;;;;4.38;1.80;;;20.00;1.00;;;;;;4877417;29;20051;-49
2023/06/07 10:45:41;;;;;;;5.03;2.35;;;20.00;1.00;;;;;;4884010;29;20382;-50
2023/06/07 10:48:31;;;;;;;4.57;1.70;;;20.00;1.00;;;;;;4877962;29;20523;-49
2023/06/07 10:50:58;;;;;;;2.67;1.40;;;20.00;1.00;;;;;;4877947;29;20041;-50
2023/06/07 10:53:25;;;;;;;6.30;1.67;;;20.00;1.00;;;;;;4877771;29;20148;-50
2023/06/07 10:55:52;;;;;;;4.03;1.90;;;20.00;1.00;;;;;;4878104;29;20093;-48
2023/06/07 10:58:27;;;;;;;4.18;1.80;;;20.00;1.00;;;;;;4877814;29;20037;-52
2023/06/07 11:01:22;;;;;;;6.70;2.35;;;20.00;1.00;;;;;;4877750;29;20116;-49
2023/06/07 11:03:48;;;;;;;4.80;1.63;;;20.00;1.00;;;;;;4871013;29;20093;-49
2023/06/07 11:06:16;;;;;;;5.18;1.75;;;20.00;1.00;;;;;;4877829;29;20033;-49
2023/06/07 11:08:43;;;;;;;3.15;1.95;;;20.00;1.00;;;;;;4878045;29;20041;-48
2023/06/07 11:11:40;;;;;;;6.93;1.85;;;20.00;1.00;;;;;;4876886;29;20041;-52
2023/06/07 11:14:08;;;;;;;3.13;1.70;;;20.00;1.00;;;;;;4878246;29;20074;-51
2023/06/07 11:16:36;;;;;;;4.50;1.90;;;20.00;1.00;;;;;;4878196;29;20045;-51
2023/06/07 11:19:11;;;;;;;7.25;1.90;;;20.00;1.00;;;;;;4878065;29;20045;-52
2023/06/07 11:22:06;;;;;;;4.97;1.52;;;20.00;1.00;;;;;;4877358;29;20394;-49
2023/06/07 11:24:35;;;;;;;6.35;2.13;;;20.00;1.00;;;;;;4870272;29;20513;-52
2023/06/07 11:27:02;;;;;;;3.60;1.70;;;20.00;1.00;;;;;;4877949;29;20037;-50
2023/06/07 11:29:30;;;;;;;4.78;1.77;;;20.00;1.00;;;;;;4877709;29;20561;-50
2023/06/07 11:32:02;;;;;;;7.30;2.05;;;20.00;1.00;;;;;;4880426;29;20055;-52
2023/06/07 11:34:33;;;;;;;3.30;1.63;;;20.00;1.00;;;;;;4881164;29;20494;-49
2023/06/07 11:37:16;;;;;;;10.38;2.33;;;20.00;1.00;;;;;;4881281;29;20037;-52
2023/06/07 11:39:43;;;;;;;5.70;2.00;;;20.00;1.00;;;;;;4881044;29;20045;-52
2023/06/07 11:42:10;;;;;;;5.97;1.90;;;20.00;1.00;;;;;;4881284;29;20127;-52
2023/06/07 11:44:38;;;;;;;5.72;2.22;;;20.00;1.00;;;;;;4883418;29;20132;-50
2023/06/07 11:47:06;;;;;;;2.80;1.55;;;20.10;1.00;;;;;;4884993;29;20044;-51
2023/06/07 11:49:35;;;;;;;6.35;1.75;;;20.00;1.00;;;;;;4880964;29;20048;-51
2023/06/07 11:52:02;;;;;;;4.68;1.92;;;20.00;1.00;;;;;;4880801;29;20044;-49
2023/06/07 11:54:29;;;;;;;4.93;1.70;;;20.00;1.00;;;;;;4881025;29;20081;-50
2023/06/07 11:56:56;;;;;;;3.63;1.70;;;20.00;1.00;;;;;;4880889;29;20113;-50
2023/06/07 11:59:23;;;;;;;4.10;2.15;;;20.10;1.00;;;;;;4879155;29;20052;-49
2023/06/07 12:01:54;;;;;;;6.65;2.53;;;20.00;1.00;;;;;;4880501;29;20044;-49
2023/06/07 12:04:22;;;;;;;4.63;2.00;;;20.00;1.00;;;;;;4879467;29;20097;-52
2023/06/07 12:06:49;;;;;;;4.65;1.92;;;20.00;1.00;;;;;;4881186;29;20043;-48
2023/06/07 12:09:18;;;;;;;4.93;1.55;;;20.00;1.00;;;;;;4880474;29;20037;-50
2023/06/07 12:11:47;;;;;;;5.35;2.10;;;20.10;1.00;;;;;;4880291;29;20033;-48
2023/06/07 12:14:33;;;;;;;4.65;1.73;;;20.00;1.00;;;;;;4880270;29;20120;-49
2023/06/07 12:17:00;;;;;;;3.70;1.88;;;20.00;1.00;;;;;;4880671;29;20049;-51
2023/06/07 12:19:27;;;;;;;5.30;2.25;;;20.10;1.00;;;;;;4880590;29;20041;-49
2023/06/07 12:22:03;;;;;;;5.15;2.15;;;20.00;1.00;;;;;;4880290;29;20041;-48
2023/06/07 12:24:36;;;;;;;5.68;1.73;;;20.10;1.00;;;;;;4880341;29;20072;-48
2023/06/07 12:27:11;;;;;;;4.68;2.28;;;20.10;1.00;;;;;;4880529;29;20493;-50
2023/06/07 12:29:39;;;;;;;7.60;1.83;;;20.00;1.00;;;;;;4880408;29;20041;-51
2023/06/07 12:32:08;;;;;;;7.30;2.45;;;20.00;1.00;;;;;;4879679;29;20041;-49
2023/06/07 12:34:35;;;;;;;3.60;1.75;;;20.10;1.00;;;;;;4880070;29;20045;-49
2023/06/07 12:37:03;;;;;;;4.80;2.42;;;20.00;1.00;;;;;;4880449;29;20037;-49
2023/06/07 12:39:30;;;;;;;3.10;2.00;;;20.10;1.00;;;;;;4880152;29;20128;-48
2023/06/07 12:41:57;;;;;;;7.63;2.85;;;20.10;1.00;;;;;;4879248;29;20045;-51
2023/06/07 12:44:24;;;;;;;7.43;3.05;;;20.10;1.00;;;;;;4880359;29;20041;-49
2023/06/07 12:46:51;;;;;;;6.18;2.00;;;20.10;1.00;;;;;;4885848;29;20037;-50
2023/06/07 12:49:18;;;;;;;4.40;2.03;;;20.10;1.00;;;;;;4879872;29;20049;-52
2023/06/07 12:51:45;;;;;;;4.05;1.80;;;20.10;1.00;;;;;;4878297;29;20048;-49
2023/06/07 12:54:13;;;;;;;3.90;2.28;;;20.10;1.00;;;;;;4879320;29;20043;-49
2023/06/07 12:56:40;;;;;;;3.97;1.85;;;20.10;1.00;;;;;;4880179;29;20041;-52
2023/06/07 12:59:07;;;;;;;3.80;2.80;;;20.10;1.00;;;;;;4879924;29;20097;-48
2023/06/07 13:01:34;;;;;;;3.38;1.95;;;20.10;1.00;;;;;;4879585;29;20552;-51
2023/06/07 13:04:02;;;;;;;4.00;1.95;;;20.10;1.00;;;;;;4880002;29;20485;-49
2023/06/07 13:06:29;;;;;;;4.80;2.17;;;20.10;1.00;;;;;;4878689;29;20405;-51
2023/06/07 13:09:04;;;;;;;7.90;3.10;;;20.10;1.00;;;;;;4879805;29;20564;-48
2023/06/07 13:11:32;;;;;;;4.88;1.73;;;20.10;1.00;;;;;;4879421;29;20116;-50